sensor_id;sensor_type;location;lat;lon;timestamp;temperature;humidity
10304;DHT22;5197;48.152;8.590;2023-11-21T00:00:37;7.30;11.20
10304;DHT22;5197;48.152;8.590;2023-11-21T00:03:04;7.20;11.20
10304;DHT22;5197;48.152;8.590;2023-11-21T00:05:32;7.20;11.20
10304;DHT22;5197;48.152;8.590;2023-11-21T00:07:59;7.20;11.30
10304;DHT22;5197;48.152;8.590;2023-11-21T00:10:26;7.20;11.30
10304;DHT22;5197;48.152;8.590;2023-11-21T00:12:53;7.20;11.40
10304;DHT22;5197;48.152;8.590;2023-11-21T00:15:22;7.20;11.40
10304;DHT22;5197;48.152;8.590;2023-11-21T00:17:49;7.20;11.50
10304;DHT22;5197;48.152;8.590;2023-11-21T00:20:16;7.20;11.70
10304;DHT22;5197;48.152;8.590;2023-11-21T00:22:43;7.10;11.60
10304;DHT22;5197;48.152;8.590;2023-11-21T00:25:11;7.20;11.90
10304;DHT22;5197;48.152;8.590;2023-11-21T00:27:38;7.10;11.90
10304;DHT22;5197;48.152;8.590;2023-11-21T00:30:06;7.10;11.90
10304;DHT22;5197;48.152;8.590;2023-11-21T00:32:35;7.10;12.00
10304;DHT22;5197;48.152;8.590;2023-11-21T00:35:03;7.10;12.10
10304;DHT22;5197;48.152;8.590;2023-11-21T00:37:30;7.10;12.30
10304;DHT22;5197;48.152;8.590;2023-11-21T00:39:59;7.10;12.40
10304;DHT22;5197;48.152;8.590;2023-11-21T00:42:26;7.10;12.80
10304;DHT22;5197;48.152;8.590;2023-11-21T00:44:53;7.10;12.70
10304;DHT22;5197;48.152;8.590;2023-11-21T00:47:20;7.00;12.80
10304;DHT22;5197;48.152;8.590;2023-11-21T00:49:48;7.00;13.00
10304;DHT22;5197;48.152;8.590;2023-11-21T00:52:15;7.00;13.10
10304;DHT22;5197;48.152;8.590;2023-11-21T00:54:43;7.00;13.20
10304;DHT22;5197;48.152;8.590;2023-11-21T00:57:10;7.00;13.20
10304;DHT22;5197;48.152;8.590;2023-11-21T00:59:38;7.00;13.40
10304;DHT22;5197;48.152;8.590;2023-11-21T01:02:05;7.00;13.40
10304;DHT22;5197;48.152;8.590;2023-11-21T01:04:33;7.00;13.50
10304;DHT22;5197;48.152;8.590;2023-11-21T01:07:00;7.00;13.70
10304;DHT22;5197;48.152;8.590;2023-11-21T01:09:27;7.00;13.70
10304;DHT22;5197;48.152;8.590;2023-11-21T01:11:54;7.00;14.00
10304;DHT22;5197;48.152;8.590;2023-11-21T01:14:22;7.00;14.00
10304;DHT22;5197;48.152;8.590;2023-11-21T01:16:49;7.00;14.00
10304;DHT22;5197;48.152;8.590;2023-11-21T01:19:16;7.00;14.10
10304;DHT22;5197;48.152;8.590;2023-11-21T01:21:43;6.90;14.10
10304;DHT22;5197;48.152;8.590;2023-11-21T01:24:10;7.00;14.30
10304;DHT22;5197;48.152;8.590;2023-11-21T01:26:37;7.00;14.30
10304;DHT22;5197;48.152;8.590;2023-11-21T01:29:04;7.20;14.60
10304;DHT22;5197;48.152;8.590;2023-11-21T01:31:31;6.90;14.40
10304;DHT22;5197;48.152;8.590;2023-11-21T01:33:58;6.90;14.50
10304;DHT22;5197;48.152;8.590;2023-11-21T01:36:32;6.90;14.60
10304;DHT22;5197;48.152;8.590;2023-11-21T01:38:59;6.90;14.70
10304;DHT22;5197;48.152;8.590;2023-11-21T01:41:28;6.90;14.90
10304;DHT22;5197;48.152;8.590;2023-11-21T01:43:55;6.90;14.90
10304;DHT22;5197;48.152;8.590;2023-11-21T01:46:23;6.90;14.80
10304;DHT22;5197;48.152;8.590;2023-11-21T01:48:51;6.80;14.90
10304;DHT22;5197;48.152;8.590;2023-11-21T01:51:20;6.80;14.90
10304;DHT22;5197;48.152;8.590;2023-11-21T01:53:47;6.80;15.50
10304;DHT22;5197;48.152;8.590;2023-11-21T01:56:15;6.80;15.10
10304;DHT22;5197;48.152;8.590;2023-11-21T01:58:44;6.80;15.10
10304;DHT22;5197;48.152;8.590;2023-11-21T02:01:11;6.80;15.20
10304;DHT22;5197;48.152;8.590;2023-11-21T02:03:38;6.80;15.20
10304;DHT22;5197;48.152;8.590;2023-11-21T02:06:05;6.80;15.60
10304;DHT22;5197;48.152;8.590;2023-11-21T02:08:32;6.80;15.30
10304;DHT22;5197;48.152;8.590;2023-11-21T02:10:59;6.80;15.40
10304;DHT22;5197;48.152;8.590;2023-11-21T02:13:26;6.80;15.40
10304;DHT22;5197;48.152;8.590;2023-11-21T02:15:54;6.70;15.60
10304;DHT22;5197;48.152;8.590;2023-11-21T02:18:21;6.70;15.50
10304;DHT22;5197;48.152;8.590;2023-11-21T02:20:49;6.70;15.60
10304;DHT22;5197;48.152;8.590;2023-11-21T02:23:17;6.70;15.80
10304;DHT22;5197;48.152;8.590;2023-11-21T02:25:44;6.70;15.70
10304;DHT22;5197;48.152;8.590;2023-11-21T02:28:12;6.70;15.80
10304;DHT22;5197;48.152;8.590;2023-11-21T02:30:42;6.70;15.90
10304;DHT22;5197;48.152;8.590;2023-11-21T02:33:10;6.70;15.80
10304;DHT22;5197;48.152;8.590;2023-11-21T02:35:39;6.70;15.90
10304;DHT22;5197;48.152;8.590;2023-11-21T02:38:06;6.70;16.00
10304;DHT22;5197;48.152;8.590;2023-11-21T02:40:33;6.70;16.10
10304;DHT22;5197;48.152;8.590;2023-11-21T02:43:00;6.70;16.10
10304;DHT22;5197;48.152;8.590;2023-11-21T02:45:27;6.60;16.00
10304;DHT22;5197;48.152;8.590;2023-11-21T02:47:54;6.70;16.40
10304;DHT22;5197;48.152;8.590;2023-11-21T02:50:24;6.60;16.30
10304;DHT22;5197;48.152;8.590;2023-11-21T02:52:51;6.60;16.20
10304;DHT22;5197;48.152;8.590;2023-11-21T02:55:18;6.60;16.20
10304;DHT22;5197;48.152;8.590;2023-11-21T02:57:45;6.60;16.10
10304;DHT22;5197;48.152;8.590;2023-11-21T03:00:13;6.60;16.00
10304;DHT22;5197;48.152;8.590;2023-11-21T03:02:42;6.60;15.90
10304;DHT22;5197;48.152;8.590;2023-11-21T03:05:11;6.60;15.80
10304;DHT22;5197;48.152;8.590;2023-11-21T03:07:38;6.60;15.80
10304;DHT22;5197;48.152;8.590;2023-11-21T03:10:08;6.50;15.70
10304;DHT22;5197;48.152;8.590;2023-11-21T03:12:40;6.50;15.60
10304;DHT22;5197;48.152;8.590;2023-11-21T03:15:08;6.60;15.60
10304;DHT22;5197;48.152;8.590;2023-11-21T03:17:38;6.50;15.50
10304;DHT22;5197;48.152;8.590;2023-11-21T03:20:05;6.50;15.50
10304;DHT22;5197;48.152;8.590;2023-11-21T03:22:38;6.50;15.50
10304;DHT22;5197;48.152;8.590;2023-11-21T03:25:06;6.50;15.50
10304;DHT22;5197;48.152;8.590;2023-11-21T03:27:33;6.40;15.30
10304;DHT22;5197;48.152;8.590;2023-11-21T03:30:00;6.30;15.40
10304;DHT22;5197;48.152;8.590;2023-11-21T03:32:27;6.30;15.40
10304;DHT22;5197;48.152;8.590;2023-11-21T03:34:56;6.30;15.50
10304;DHT22;5197;48.152;8.590;2023-11-21T03:37:25;6.20;15.40
10304;DHT22;5197;48.152;8.590;2023-11-21T03:39:55;6.20;15.40
10304;DHT22;5197;48.152;8.590;2023-11-21T03:42:24;6.10;15.60
10304;DHT22;5197;48.152;8.590;2023-11-21T03:44:54;6.10;15.90
10304;DHT22;5197;48.152;8.590;2023-11-21T03:47:21;6.10;16.20
10304;DHT22;5197;48.152;8.590;2023-11-21T03:49:49;6.10;16.20
10304;DHT22;5197;48.152;8.590;2023-11-21T03:52:17;6.10;16.40
10304;DHT22;5197;48.152;8.590;2023-11-21T03:54:44;6.10;16.50
10304;DHT22;5197;48.152;8.590;2023-11-21T03:57:12;6.10;16.60
10304;DHT22;5197;48.152;8.590;2023-11-21T03:59:43;6.00;16.60
10304;DHT22;5197;48.152;8.590;2023-11-21T04:02:10;6.00;16.60
10304;DHT22;5197;48.152;8.590;2023-11-21T04:04:37;6.10;16.80
10304;DHT22;5197;48.152;8.590;2023-11-21T04:07:05;6.00;16.60
10304;DHT22;5197;48.152;8.590;2023-11-21T04:09:32;6.00;16.80
10304;DHT22;5197;48.152;8.590;2023-11-21T04:12:00;6.00;16.80
10304;DHT22;5197;48.152;8.590;2023-11-21T04:14:27;6.00;17.30
10304;DHT22;5197;48.152;8.590;2023-11-21T04:16:54;6.00;17.30
10304;DHT22;5197;48.152;8.590;2023-11-21T04:19:21;6.00;17.30
10304;DHT22;5197;48.152;8.590;2023-11-21T04:21:49;6.00;17.30
10304;DHT22;5197;48.152;8.590;2023-11-21T04:24:16;6.10;17.40
10304;DHT22;5197;48.152;8.590;2023-11-21T04:26:44;6.00;17.30
10304;DHT22;5197;48.152;8.590;2023-11-21T04:29:11;6.10;17.50
10304;DHT22;5197;48.152;8.590;2023-11-21T04:31:38;6.10;17.60
10304;DHT22;5197;48.152;8.590;2023-11-21T04:34:05;6.10;17.40
10304;DHT22;5197;48.152;8.590;2023-11-21T04:36:32;6.00;17.60
10304;DHT22;5197;48.152;8.590;2023-11-21T04:38:59;6.10;17.90
10304;DHT22;5197;48.152;8.590;2023-11-21T04:41:26;6.10;18.00
10304;DHT22;5197;48.152;8.590;2023-11-21T04:43:53;6.10;17.90
10304;DHT22;5197;48.152;8.590;2023-11-21T04:46:21;6.10;17.90
10304;DHT22;5197;48.152;8.590;2023-11-21T04:48:48;6.00;17.90
10304;DHT22;5197;48.152;8.590;2023-11-21T04:51:16;6.00;18.00
10304;DHT22;5197;48.152;8.590;2023-11-21T04:53:43;6.00;18.00
10304;DHT22;5197;48.152;8.590;2023-11-21T04:56:10;6.00;18.10
10304;DHT22;5197;48.152;8.590;2023-11-21T04:58:38;6.00;18.20
10304;DHT22;5197;48.152;8.590;2023-11-21T05:01:07;5.90;18.10
10304;DHT22;5197;48.152;8.590;2023-11-21T05:03:35;5.90;18.00
10304;DHT22;5197;48.152;8.590;2023-11-21T05:06:03;5.50;18.00
10304;DHT22;5197;48.152;8.590;2023-11-21T05:08:32;5.90;18.60
10304;DHT22;5197;48.152;8.590;2023-11-21T05:10:59;5.80;18.50
10304;DHT22;5197;48.152;8.590;2023-11-21T05:13:26;5.80;18.30
10304;DHT22;5197;48.152;8.590;2023-11-21T05:15:55;5.80;18.90
10304;DHT22;5197;48.152;8.590;2023-11-21T05:18:24;5.80;18.90
10304;DHT22;5197;48.152;8.590;2023-11-21T05:20:54;5.80;18.90
10304;DHT22;5197;48.152;8.590;2023-11-21T05:23:21;5.80;18.90
10304;DHT22;5197;48.152;8.590;2023-11-21T05:25:48;5.80;18.90
10304;DHT22;5197;48.152;8.590;2023-11-21T05:28:15;5.70;18.80
10304;DHT22;5197;48.152;8.590;2023-11-21T05:30:42;5.70;18.80
10304;DHT22;5197;48.152;8.590;2023-11-21T05:33:11;5.60;18.70
10304;DHT22;5197;48.152;8.590;2023-11-21T05:35:38;5.60;18.80
10304;DHT22;5197;48.152;8.590;2023-11-21T05:38:05;5.70;18.80
10304;DHT22;5197;48.152;8.590;2023-11-21T05:40:32;5.60;18.80
10304;DHT22;5197;48.152;8.590;2023-11-21T05:42:59;5.60;18.70
10304;DHT22;5197;48.152;8.590;2023-11-21T05:45:26;5.60;18.80
10304;DHT22;5197;48.152;8.590;2023-11-21T05:47:56;5.50;18.80
10304;DHT22;5197;48.152;8.590;2023-11-21T05:50:23;5.50;18.70
10304;DHT22;5197;48.152;8.590;2023-11-21T05:52:50;5.50;18.70
10304;DHT22;5197;48.152;8.590;2023-11-21T05:55:17;5.50;18.70
10304;DHT22;5197;48.152;8.590;2023-11-21T05:57:45;5.50;18.70
10304;DHT22;5197;48.152;8.590;2023-11-21T06:00:13;5.40;18.70
10304;DHT22;5197;48.152;8.590;2023-11-21T06:02:45;5.50;18.70
10304;DHT22;5197;48.152;8.590;2023-11-21T06:05:13;5.50;18.80
10304;DHT22;5197;48.152;8.590;2023-11-21T06:07:40;5.50;18.80
10304;DHT22;5197;48.152;8.590;2023-11-21T06:10:08;5.50;18.80
10304;DHT22;5197;48.152;8.590;2023-11-21T06:12:38;5.50;18.70
10304;DHT22;5197;48.152;8.590;2023-11-21T06:15:07;5.40;18.80
10304;DHT22;5197;48.152;8.590;2023-11-21T06:17:36;5.50;18.70
10304;DHT22;5197;48.152;8.590;2023-11-21T06:20:05;5.40;18.70
10304;DHT22;5197;48.152;8.590;2023-11-21T06:22:37;5.40;18.60
10304;DHT22;5197;48.152;8.590;2023-11-21T06:25:06;5.40;18.60
10304;DHT22;5197;48.152;8.590;2023-11-21T06:27:40;5.30;18.50
10304;DHT22;5197;48.152;8.590;2023-11-21T06:30:07;5.30;18.60
10304;DHT22;5197;48.152;8.590;2023-11-21T06:32:37;5.30;18.50
10304;DHT22;5197;48.152;8.590;2023-11-21T06:35:05;5.30;18.60
10304;DHT22;5197;48.152;8.590;2023-11-21T06:37:33;5.20;18.50
10304;DHT22;5197;48.152;8.590;2023-11-21T06:40:00;5.20;18.50
10304;DHT22;5197;48.152;8.590;2023-11-21T06:42:27;5.20;18.50
10304;DHT22;5197;48.152;8.590;2023-11-21T06:44:56;5.10;18.50
10304;DHT22;5197;48.152;8.590;2023-11-21T06:47:24;5.10;18.50
10304;DHT22;5197;48.152;8.590;2023-11-21T06:49:53;5.20;18.60
10304;DHT22;5197;48.152;8.590;2023-11-21T06:52:20;5.20;18.60
10304;DHT22;5197;48.152;8.590;2023-11-21T06:54:48;5.20;18.60
10304;DHT22;5197;48.152;8.590;2023-11-21T06:57:16;5.20;18.50
10304;DHT22;5197;48.152;8.590;2023-11-21T06:59:44;5.20;18.60
10304;DHT22;5197;48.152;8.590;2023-11-21T07:02:11;5.20;18.60
10304;DHT22;5197;48.152;8.590;2023-11-21T07:04:38;5.20;18.60
10304;DHT22;5197;48.152;8.590;2023-11-21T07:07:06;5.20;18.50
10304;DHT22;5197;48.152;8.590;2023-11-21T07:09:34;5.30;18.60
10304;DHT22;5197;48.152;8.590;2023-11-21T07:12:01;5.30;18.70
10304;DHT22;5197;48.152;8.590;2023-11-21T07:14:30;5.30;18.70
10304;DHT22;5197;48.152;8.590;2023-11-21T07:16:58;5.40;18.60
10304;DHT22;5197;48.152;8.590;2023-11-21T07:19:26;5.40;19.00
10304;DHT22;5197;48.152;8.590;2023-11-21T07:21:53;5.40;19.10
10304;DHT22;5197;48.152;8.590;2023-11-21T07:24:20;5.50;19.50
10304;DHT22;5197;48.152;8.590;2023-11-21T07:26:49;5.50;19.60
10304;DHT22;5197;48.152;8.590;2023-11-21T07:29:16;5.60;19.70
10304;DHT22;5197;48.152;8.590;2023-11-21T07:31:43;5.60;19.80
10304;DHT22;5197;48.152;8.590;2023-11-21T07:34:10;5.60;20.00
10304;DHT22;5197;48.152;8.590;2023-11-21T07:36:39;5.60;20.10
10304;DHT22;5197;48.152;8.590;2023-11-21T07:39:06;5.60;20.10
10304;DHT22;5197;48.152;8.590;2023-11-21T07:41:33;5.60;20.30
10304;DHT22;5197;48.152;8.590;2023-11-21T07:44:00;5.70;20.60
10304;DHT22;5197;48.152;8.590;2023-11-21T07:46:27;5.70;20.70
10304;DHT22;5197;48.152;8.590;2023-11-21T07:48:54;5.80;20.90
10304;DHT22;5197;48.152;8.590;2023-11-21T07:51:22;5.80;21.00
10304;DHT22;5197;48.152;8.590;2023-11-21T07:53:50;5.80;21.20
10304;DHT22;5197;48.152;8.590;2023-11-21T07:56:17;5.90;21.30
10304;DHT22;5197;48.152;8.590;2023-11-21T07:58:44;5.90;21.40
10304;DHT22;5197;48.152;8.590;2023-11-21T08:01:12;6.00;21.80
10304;DHT22;5197;48.152;8.590;2023-11-21T08:03:39;6.00;21.60
10304;DHT22;5197;48.152;8.590;2023-11-21T08:06:07;6.00;21.80
10304;DHT22;5197;48.152;8.590;2023-11-21T08:08:35;6.10;22.90
10304;DHT22;5197;48.152;8.590;2023-11-21T08:11:08;6.10;21.80
10304;DHT22;5197;48.152;8.590;2023-11-21T08:13:38;6.10;21.90
10304;DHT22;5197;48.152;8.590;2023-11-21T08:16:07;6.20;23.00
10304;DHT22;5197;48.152;8.590;2023-11-21T08:18:38;6.20;22.10
10304;DHT22;5197;48.152;8.590;2023-11-21T08:21:32;6.20;22.10
10304;DHT22;5197;48.152;8.590;2023-11-21T08:24:01;6.30;22.00
10304;DHT22;5197;48.152;8.590;2023-11-21T08:26:32;6.30;22.10
10304;DHT22;5197;48.152;8.590;2023-11-21T08:29:03;6.40;22.30
10304;DHT22;5197;48.152;8.590;2023-11-21T08:31:34;6.40;22.20
10304;DHT22;5197;48.152;8.590;2023-11-21T08:34:03;6.40;22.20
10304;DHT22;5197;48.152;8.590;2023-11-21T08:36:30;6.50;22.40
10304;DHT22;5197;48.152;8.590;2023-11-21T08:38:58;6.50;22.40
10304;DHT22;5197;48.152;8.590;2023-11-21T08:41:25;6.50;22.50
10304;DHT22;5197;48.152;8.590;2023-11-21T08:43:54;6.60;22.70
10304;DHT22;5197;48.152;8.590;2023-11-21T08:46:22;6.60;22.60
10304;DHT22;5197;48.152;8.590;2023-11-21T08:48:49;6.70;22.80
10304;DHT22;5197;48.152;8.590;2023-11-21T08:51:19;6.70;23.10
10304;DHT22;5197;48.152;8.590;2023-11-21T08:53:47;6.80;23.10
10304;DHT22;5197;48.152;8.590;2023-11-21T08:56:14;6.90;23.30
10304;DHT22;5197;48.152;8.590;2023-11-21T08:58:41;7.00;23.50
10304;DHT22;5197;48.152;8.590;2023-11-21T09:01:09;7.00;23.50
10304;DHT22;5197;48.152;8.590;2023-11-21T09:03:36;7.10;23.20
10304;DHT22;5197;48.152;8.590;2023-11-21T09:06:03;7.20;23.10
10304;DHT22;5197;48.152;8.590;2023-11-21T09:08:31;7.20;23.00
10304;DHT22;5197;48.152;8.590;2023-11-21T09:10:58;7.30;22.90
10304;DHT22;5197;48.152;8.590;2023-11-21T09:13:26;7.30;22.70
10304;DHT22;5197;48.152;8.590;2023-11-21T09:15:53;7.30;22.40
10304;DHT22;5197;48.152;8.590;2023-11-21T09:18:20;7.40;22.50
10304;DHT22;5197;48.152;8.590;2023-11-21T09:20:48;7.40;22.10
10304;DHT22;5197;48.152;8.590;2023-11-21T09:23:15;7.40;21.60
10304;DHT22;5197;48.152;8.590;2023-11-21T09:25:42;7.40;21.30
10304;DHT22;5197;48.152;8.590;2023-11-21T09:28:13;7.40;21.10
10304;DHT22;5197;48.152;8.590;2023-11-21T09:30:40;7.40;21.20
10304;DHT22;5197;48.152;8.590;2023-11-21T09:33:07;7.40;21.10
10304;DHT22;5197;48.152;8.590;2023-11-21T09:35:38;7.40;20.90
10304;DHT22;5197;48.152;8.590;2023-11-21T09:38:05;7.40;20.00
10304;DHT22;5197;48.152;8.590;2023-11-21T09:40:37;7.40;19.90
10304;DHT22;5197;48.152;8.590;2023-11-21T09:43:08;7.50;20.40
10304;DHT22;5197;48.152;8.590;2023-11-21T09:45:45;7.60;20.40
10304;DHT22;5197;48.152;8.590;2023-11-21T09:48:15;7.60;20.00
10304;DHT22;5197;48.152;8.590;2023-11-21T09:50:43;7.70;20.10
10304;DHT22;5197;48.152;8.590;2023-11-21T09:53:17;7.80;20.20
10304;DHT22;5197;48.152;8.590;2023-11-21T09:55:47;7.90;20.20
10304;DHT22;5197;48.152;8.590;2023-11-21T09:58:15;7.90;20.20
10304;DHT22;5197;48.152;8.590;2023-11-21T10:00:47;7.90;20.20
10304;DHT22;5197;48.152;8.590;2023-11-21T10:03:15;7.90;20.10
10304;DHT22;5197;48.152;8.590;2023-11-21T10:05:44;7.90;20.30
10304;DHT22;5197;48.152;8.590;2023-11-21T10:08:13;7.90;20.20
10304;DHT22;5197;48.152;8.590;2023-11-21T10:10:46;7.80;20.10
10304;DHT22;5197;48.152;8.590;2023-11-21T10:13:18;6.20;18.30
10304;DHT22;5197;48.152;8.590;2023-11-21T10:15:51;7.60;18.30
10304;DHT22;5197;48.152;8.590;2023-11-21T10:18:19;7.50;18.30
10304;DHT22;5197;48.152;8.590;2023-11-21T10:20:46;7.40;19.80
10304;DHT22;5197;48.152;8.590;2023-11-21T10:23:20;7.30;19.80
10304;DHT22;5197;48.152;8.590;2023-11-21T10:25:50;7.40;19.80
10304;DHT22;5197;48.152;8.590;2023-11-21T10:28:19;7.40;19.90
10304;DHT22;5197;48.152;8.590;2023-11-21T10:30:47;7.50;20.00
10304;DHT22;5197;48.152;8.590;2023-11-21T10:33:15;7.50;20.00
10304;DHT22;5197;48.152;8.590;2023-11-21T10:38:09;7.60;20.10
10304;DHT22;5197;48.152;8.590;2023-11-21T10:40:44;7.50;20.00
10304;DHT22;5197;48.152;8.590;2023-11-21T10:43:12;7.50;19.90
10304;DHT22;5197;48.152;8.590;2023-11-21T10:45:43;7.50;20.00
10304;DHT22;5197;48.152;8.590;2023-11-21T10:48:13;7.40;19.80
10304;DHT22;5197;48.152;8.590;2023-11-21T10:50:45;7.40;19.80
10304;DHT22;5197;48.152;8.590;2023-11-21T10:53:12;7.30;19.80
10304;DHT22;5197;48.152;8.590;2023-11-21T10:55:40;7.40;19.90
10304;DHT22;5197;48.152;8.590;2023-11-21T10:58:08;7.40;19.80
10304;DHT22;5197;48.152;8.590;2023-11-21T11:00:38;7.40;19.80
10304;DHT22;5197;48.152;8.590;2023-11-21T11:03:07;7.50;19.90
10304;DHT22;5197;48.152;8.590;2023-11-21T11:05:43;7.50;19.90
10304;DHT22;5197;48.152;8.590;2023-11-21T11:08:21;7.40;19.80
10304;DHT22;5197;48.152;8.590;2023-11-21T11:10:54;7.40;19.80
10304;DHT22;5197;48.152;8.590;2023-11-21T11:13:22;7.30;19.80
10304;DHT22;5197;48.152;8.590;2023-11-21T11:15:50;7.30;19.80
10304;DHT22;5197;48.152;8.590;2023-11-21T11:18:18;7.30;19.90
10304;DHT22;5197;48.152;8.590;2023-11-21T11:20:47;7.30;19.80
10304;DHT22;5197;48.152;8.590;2023-11-21T11:23:40;7.20;20.40
10304;DHT22;5197;48.152;8.590;2023-11-21T11:26:39;7.20;20.10
10304;DHT22;5197;48.152;8.590;2023-11-21T11:32:08;7.20;21.00
10304;DHT22;5197;48.152;8.590;2023-11-21T11:34:51;7.20;20.80
10304;DHT22;5197;48.152;8.590;2023-11-21T11:37:21;7.30;20.50
10304;DHT22;5197;48.152;8.590;2023-11-21T11:39:51;7.30;19.80
10304;DHT22;5197;48.152;8.590;2023-11-21T11:42:18;7.40;19.80
10304;DHT22;5197;48.152;8.590;2023-11-21T11:44:48;7.40;19.90
10304;DHT22;5197;48.152;8.590;2023-11-21T11:50:08;7.50;20.00
10304;DHT22;5197;48.152;8.590;2023-11-21T11:52:51;7.50;20.00
10304;DHT22;5197;48.152;8.590;2023-11-21T11:55:21;7.50;20.00
10304;DHT22;5197;48.152;8.590;2023-11-21T11:57:54;7.40;19.80
10304;DHT22;5197;48.152;8.590;2023-11-21T12:02:59;7.50;20.00
10304;DHT22;5197;48.152;8.590;2023-11-21T12:05:31;7.50;20.30
10304;DHT22;5197;48.152;8.590;2023-11-21T12:08:12;7.50;19.90
10304;DHT22;5197;48.152;8.590;2023-11-21T12:10:39;7.50;20.00
10304;DHT22;5197;48.152;8.590;2023-11-21T12:13:08;7.60;20.10
10304;DHT22;5197;48.152;8.590;2023-11-21T12:15:37;7.60;20.00
10304;DHT22;5197;48.152;8.590;2023-11-21T12:18:05;7.60;20.00
10304;DHT22;5197;48.152;8.590;2023-11-21T12:20:33;7.60;20.00
10304;DHT22;5197;48.152;8.590;2023-11-21T12:23:06;7.60;20.50
10304;DHT22;5197;48.152;8.590;2023-11-21T12:25:36;7.50;21.50
10304;DHT22;5197;48.152;8.590;2023-11-21T12:28:04;7.50;22.30
10304;DHT22;5197;48.152;8.590;2023-11-21T12:30:34;7.50;22.20
10304;DHT22;5197;48.152;8.590;2023-11-21T12:33:05;7.50;22.30
10304;DHT22;5197;48.152;8.590;2023-11-21T12:35:36;7.50;23.10
10304;DHT22;5197;48.152;8.590;2023-11-21T12:38:04;7.60;23.40
10304;DHT22;5197;48.152;8.590;2023-11-21T12:40:36;7.60;23.00
10304;DHT22;5197;48.152;8.590;2023-11-21T12:43:03;7.60;23.70
10304;DHT22;5197;48.152;8.590;2023-11-21T12:45:32;7.60;24.30
10304;DHT22;5197;48.152;8.590;2023-11-21T12:48:01;7.60;23.90
10304;DHT22;5197;48.152;8.590;2023-11-21T12:50:31;7.60;24.40
10304;DHT22;5197;48.152;8.590;2023-11-21T12:53:10;7.60;24.50
10304;DHT22;5197;48.152;8.590;2023-11-21T12:55:44;7.60;24.90
10304;DHT22;5197;48.152;8.590;2023-11-21T12:58:17;7.60;24.10
10304;DHT22;5197;48.152;8.590;2023-11-21T13:00:51;7.60;24.30
10304;DHT22;5197;48.152;8.590;2023-11-21T13:03:20;7.60;23.90
10304;DHT22;5197;48.152;8.590;2023-11-21T13:05:53;7.60;24.10
10304;DHT22;5197;48.152;8.590;2023-11-21T13:08:25;7.60;24.00
10304;DHT22;5197;48.152;8.590;2023-11-21T13:10:54;7.60;24.20
10304;DHT22;5197;48.152;8.590;2023-11-21T13:13:23;7.60;24.60
10304;DHT22;5197;48.152;8.590;2023-11-21T13:15:56;7.60;24.60
10304;DHT22;5197;48.152;8.590;2023-11-21T13:18:25;7.60;24.50
10304;DHT22;5197;48.152;8.590;2023-11-21T13:21:01;7.50;24.30
10304;DHT22;5197;48.152;8.590;2023-11-21T13:23:42;7.50;24.30
10304;DHT22;5197;48.152;8.590;2023-11-21T13:26:10;7.50;24.50
10304;DHT22;5197;48.152;8.590;2023-11-21T13:28:37;7.50;24.80
10304;DHT22;5197;48.152;8.590;2023-11-21T13:31:05;7.50;25.10
10304;DHT22;5197;48.152;8.590;2023-11-21T13:33:49;7.50;25.20
10304;DHT22;5197;48.152;8.590;2023-11-21T13:36:24;7.60;25.50
10304;DHT22;5197;48.152;8.590;2023-11-21T13:38:52;7.60;24.80
10304;DHT22;5197;48.152;8.590;2023-11-21T13:41:19;7.50;24.60
10304;DHT22;5197;48.152;8.590;2023-11-21T13:43:46;7.50;25.10
10304;DHT22;5197;48.152;8.590;2023-11-21T13:46:24;7.50;24.80
10304;DHT22;5197;48.152;8.590;2023-11-21T13:48:51;7.40;25.40
10304;DHT22;5197;48.152;8.590;2023-11-21T13:51:23;7.40;24.90
10304;DHT22;5197;48.152;8.590;2023-11-21T13:54:01;7.40;25.40
10304;DHT22;5197;48.152;8.590;2023-11-21T13:56:28;7.40;25.50
10304;DHT22;5197;48.152;8.590;2023-11-21T13:58:56;7.30;25.90
10304;DHT22;5197;48.152;8.590;2023-11-21T14:01:25;7.30;26.70
10304;DHT22;5197;48.152;8.590;2023-11-21T14:04:00;7.30;27.60
10304;DHT22;5197;48.152;8.590;2023-11-21T14:06:50;7.20;27.70
10304;DHT22;5197;48.152;8.590;2023-11-21T14:09:22;7.20;28.20
10304;DHT22;5197;48.152;8.590;2023-11-21T14:11:55;7.20;28.50
10304;DHT22;5197;48.152;8.590;2023-11-21T14:14:27;7.10;29.30
10304;DHT22;5197;48.152;8.590;2023-11-21T14:16:55;7.20;29.70
10304;DHT22;5197;48.152;8.590;2023-11-21T14:19:26;7.20;29.40
10304;DHT22;5197;48.152;8.590;2023-11-21T14:21:59;7.20;29.20
10304;DHT22;5197;48.152;8.590;2023-11-21T14:24:26;7.30;28.90
10304;DHT22;5197;48.152;8.590;2023-11-21T14:26:53;7.30;28.60
10304;DHT22;5197;48.152;8.590;2023-11-21T14:29:21;7.30;28.30
10304;DHT22;5197;48.152;8.590;2023-11-21T14:31:50;7.30;28.10
10304;DHT22;5197;48.152;8.590;2023-11-21T14:34:20;7.30;27.60
10304;DHT22;5197;48.152;8.590;2023-11-21T14:36:50;7.30;27.30
10304;DHT22;5197;48.152;8.590;2023-11-21T14:39:17;7.30;27.10
10304;DHT22;5197;48.152;8.590;2023-11-21T14:41:53;7.30;27.20
10304;DHT22;5197;48.152;8.590;2023-11-21T14:44:22;7.30;28.10
10304;DHT22;5197;48.152;8.590;2023-11-21T14:46:53;7.30;28.30
10304;DHT22;5197;48.152;8.590;2023-11-21T14:49:25;7.30;28.70
10304;DHT22;5197;48.152;8.590;2023-11-21T14:51:55;7.20;30.60
10304;DHT22;5197;48.152;8.590;2023-11-21T14:54:45;7.20;29.80
10304;DHT22;5197;48.152;8.590;2023-11-21T14:57:24;7.10;29.60
10304;DHT22;5197;48.152;8.590;2023-11-21T14:59:53;7.00;26.90
10304;DHT22;5197;48.152;8.590;2023-11-21T15:02:25;6.80;24.90
10304;DHT22;5197;48.152;8.590;2023-11-21T15:05:11;6.70;25.30
10304;DHT22;5197;48.152;8.590;2023-11-21T15:07:45;6.70;26.20
10304;DHT22;5197;48.152;8.590;2023-11-21T15:10:19;6.70;26.20
10304;DHT22;5197;48.152;8.590;2023-11-21T15:12:55;6.60;26.30
10304;DHT22;5197;48.152;8.590;2023-11-21T15:15:24;6.60;26.20
10304;DHT22;5197;48.152;8.590;2023-11-21T15:17:52;6.60;26.10
10304;DHT22;5197;48.152;8.590;2023-11-21T15:20:19;6.60;25.90
10304;DHT22;5197;48.152;8.590;2023-11-21T15:22:49;6.60;25.70
10304;DHT22;5197;48.152;8.590;2023-11-21T15:25:16;6.60;25.90
10304;DHT22;5197;48.152;8.590;2023-11-21T15:27:43;6.50;26.00
10304;DHT22;5197;48.152;8.590;2023-11-21T15:30:10;6.50;26.00
10304;DHT22;5197;48.152;8.590;2023-11-21T15:32:38;6.50;26.00
10304;DHT22;5197;48.152;8.590;2023-11-21T15:35:06;6.60;25.90
10304;DHT22;5197;48.152;8.590;2023-11-21T15:37:37;6.60;25.60
10304;DHT22;5197;48.152;8.590;2023-11-21T15:40:05;6.60;25.50
10304;DHT22;5197;48.152;8.590;2023-11-21T15:42:33;6.60;25.20
10304;DHT22;5197;48.152;8.590;2023-11-21T15:45:00;6.70;24.80
10304;DHT22;5197;48.152;8.590;2023-11-21T15:47:27;6.70;24.50
10304;DHT22;5197;48.152;8.590;2023-11-21T15:49:54;6.80;24.30
10304;DHT22;5197;48.152;8.590;2023-11-21T15:52:21;6.80;23.90
10304;DHT22;5197;48.152;8.590;2023-11-21T15:54:48;6.80;23.80
10304;DHT22;5197;48.152;8.590;2023-11-21T15:57:16;6.90;23.60
10304;DHT22;5197;48.152;8.590;2023-11-21T15:59:46;6.90;23.40
10304;DHT22;5197;48.152;8.590;2023-11-21T16:02:13;6.90;23.30
10304;DHT22;5197;48.152;8.590;2023-11-21T16:04:43;6.90;23.40
10304;DHT22;5197;48.152;8.590;2023-11-21T16:07:10;6.90;23.40
10304;DHT22;5197;48.152;8.590;2023-11-21T16:09:38;6.90;23.50
10304;DHT22;5197;48.152;8.590;2023-11-21T16:12:07;6.90;23.50
10304;DHT22;5197;48.152;8.590;2023-11-21T16:14:36;6.90;24.20
10304;DHT22;5197;48.152;8.590;2023-11-21T16:17:09;6.80;25.00
10304;DHT22;5197;48.152;8.590;2023-11-21T16:19:40;6.80;26.00
10304;DHT22;5197;48.152;8.590;2023-11-21T16:22:09;6.70;26.90
10304;DHT22;5197;48.152;8.590;2023-11-21T16:24:37;6.70;27.20